15°C Temp
13°C Dewpoint
% Humidity
Temperature
26 KM/H
16 MPH
14 KTS
200°
South South
West

Wind Speed
Partly Cloudy
Conditions
Pressure 1016.92 (hPa) - 30.03 (in)
Visibility 6.2 (mi) - 10.0 (km)

Current Conditions
EGKA
Location 9(mi)
Metar :EGKA 160820Z 20014KT 9999 FEW007 SCT011 BKN045 15/13 Q1017
Sun 16th June 08:20 am

Airport
  Metar Aviation API Data Provided by https://www.checkwx.com/ PHP scripts by weather34.com ©2019